sensor_id;sensor_type;location;lat;lon;timestamp;temperature;humidity
37530;DHT22;23374;52.758;6.872;2024-02-21T00:00:15;9.60;21.00
37530;DHT22;23374;52.758;6.872;2024-02-21T00:02:37;9.60;2.10
37530;DHT22;23374;52.758;6.872;2024-02-21T00:05:00;9.60;22.70
37530;DHT22;23374;52.758;6.872;2024-02-21T00:07:20;9.60;1.00
37530;DHT22;23374;52.758;6.872;2024-02-21T00:09:41;9.60;1.00
37530;DHT22;23374;52.758;6.872;2024-02-21T00:12:02;9.60;1.00
37530;DHT22;23374;52.758;6.872;2024-02-21T00:14:23;9.60;1.00
37530;DHT22;23374;52.758;6.872;2024-02-21T00:16:43;9.60;1.00
37530;DHT22;23374;52.758;6.872;2024-02-21T00:19:04;9.60;1.00
37530;DHT22;23374;52.758;6.872;2024-02-21T00:21:24;9.60;1.00
37530;DHT22;23374;52.758;6.872;2024-02-21T00:23:45;9.60;1.00
37530;DHT22;23374;52.758;6.872;2024-02-21T00:26:11;9.60;1.00
37530;DHT22;23374;52.758;6.872;2024-02-21T00:28:31;9.60;1.00
37530;DHT22;23374;52.758;6.872;2024-02-21T00:30:52;9.60;1.00
37530;DHT22;23374;52.758;6.872;2024-02-21T00:33:14;9.60;1.00
37530;DHT22;23374;52.758;6.872;2024-02-21T00:35:34;9.60;1.00
37530;DHT22;23374;52.758;6.872;2024-02-21T00:37:54;9.60;1.00
37530;DHT22;23374;52.758;6.872;2024-02-21T00:40:17;9.70;1.00
37530;DHT22;23374;52.758;6.872;2024-02-21T00:42:40;9.70;1.00
37530;DHT22;23374;52.758;6.872;2024-02-21T00:45:00;9.70;1.00
37530;DHT22;23374;52.758;6.872;2024-02-21T00:47:20;9.70;1.00
37530;DHT22;23374;52.758;6.872;2024-02-21T00:49:41;9.70;1.00
37530;DHT22;23374;52.758;6.872;2024-02-21T00:52:02;9.70;1.00
37530;DHT22;23374;52.758;6.872;2024-02-21T00:54:22;9.70;1.00
37530;DHT22;23374;52.758;6.872;2024-02-21T00:56:43;9.70;1.00
37530;DHT22;23374;52.758;6.872;2024-02-21T00:59:04;9.70;1.00
37530;DHT22;23374;52.758;6.872;2024-02-21T01:01:25;9.60;1.00
37530;DHT22;23374;52.758;6.872;2024-02-21T01:03:45;9.70;1.00
37530;DHT22;23374;52.758;6.872;2024-02-21T01:06:06;9.60;1.00
37530;DHT22;23374;52.758;6.872;2024-02-21T01:08:26;9.60;1.00
37530;DHT22;23374;52.758;6.872;2024-02-21T01:10:46;9.60;1.00
37530;DHT22;23374;52.758;6.872;2024-02-21T01:13:07;9.70;1.00
37530;DHT22;23374;52.758;6.872;2024-02-21T01:15:27;9.70;1.00
37530;DHT22;23374;52.758;6.872;2024-02-21T01:17:48;9.60;1.00
37530;DHT22;23374;52.758;6.872;2024-02-21T01:20:11;9.70;1.00
37530;DHT22;23374;52.758;6.872;2024-02-21T01:22:31;9.70;1.00
37530;DHT22;23374;52.758;6.872;2024-02-21T01:24:51;9.70;1.00
37530;DHT22;23374;52.758;6.872;2024-02-21T01:27:12;9.70;1.00
37530;DHT22;23374;52.758;6.872;2024-02-21T01:29:32;9.70;1.00
37530;DHT22;23374;52.758;6.872;2024-02-21T01:31:52;9.70;1.00
37530;DHT22;23374;52.758;6.872;2024-02-21T01:34:13;9.70;1.00
37530;DHT22;23374;52.758;6.872;2024-02-21T01:36:34;9.70;1.00
37530;DHT22;23374;52.758;6.872;2024-02-21T01:38:54;9.60;1.00
37530;DHT22;23374;52.758;6.872;2024-02-21T01:41:15;9.60;1.00
37530;DHT22;23374;52.758;6.872;2024-02-21T01:43:36;9.60;1.00
37530;DHT22;23374;52.758;6.872;2024-02-21T01:45:57;9.60;1.00
37530;DHT22;23374;52.758;6.872;2024-02-21T01:48:18;9.60;1.00
37530;DHT22;23374;52.758;6.872;2024-02-21T01:50:39;9.60;1.00
37530;DHT22;23374;52.758;6.872;2024-02-21T01:53:00;9.60;1.00
37530;DHT22;23374;52.758;6.872;2024-02-21T01:55:20;9.60;1.00
37530;DHT22;23374;52.758;6.872;2024-02-21T01:57:43;9.60;1.00
37530;DHT22;23374;52.758;6.872;2024-02-21T02:00:10;9.60;1.00
37530;DHT22;23374;52.758;6.872;2024-02-21T02:02:33;9.60;1.00
37530;DHT22;23374;52.758;6.872;2024-02-21T02:04:51;9.60;1.00
37530;DHT22;23374;52.758;6.872;2024-02-21T02:07:12;9.60;1.00
37530;DHT22;23374;52.758;6.872;2024-02-21T02:09:33;9.60;4.20
37530;DHT22;23374;52.758;6.872;2024-02-21T02:11:53;9.60;7.40
37530;DHT22;23374;52.758;6.872;2024-02-21T02:14:13;9.60;16.50
37530;DHT22;23374;52.758;6.872;2024-02-21T02:16:34;9.60;9.30
37530;DHT22;23374;52.758;6.872;2024-02-21T02:18:54;9.60;76.70
37530;DHT22;23374;52.758;6.872;2024-02-21T02:21:29;9.60;99.90
37530;DHT22;23374;52.758;6.872;2024-02-21T02:23:49;9.60;99.90
37530;DHT22;23374;52.758;6.872;2024-02-21T02:26:10;9.60;99.90
37530;DHT22;23374;52.758;6.872;2024-02-21T02:28:31;9.50;99.90
37530;DHT22;23374;52.758;6.872;2024-02-21T02:30:51;9.50;99.90
37530;DHT22;23374;52.758;6.872;2024-02-21T02:33:13;9.50;99.90
37530;DHT22;23374;52.758;6.872;2024-02-21T02:35:33;9.50;99.90
37530;DHT22;23374;52.758;6.872;2024-02-21T02:37:55;9.50;1.00
37530;DHT22;23374;52.758;6.872;2024-02-21T02:40:18;9.50;1.00
37530;DHT22;23374;52.758;6.872;2024-02-21T02:42:39;9.40;1.00
37530;DHT22;23374;52.758;6.872;2024-02-21T02:44:59;9.40;52.30
37530;DHT22;23374;52.758;6.872;2024-02-21T02:47:20;9.30;99.90
37530;DHT22;23374;52.758;6.872;2024-02-21T02:49:40;9.30;99.90
37530;DHT22;23374;52.758;6.872;2024-02-21T02:52:00;9.30;1.00
37530;DHT22;23374;52.758;6.872;2024-02-21T02:54:21;9.30;1.00
37530;DHT22;23374;52.758;6.872;2024-02-21T02:56:41;9.20;1.00
37530;DHT22;23374;52.758;6.872;2024-02-21T02:59:02;9.20;1.00
37530;DHT22;23374;52.758;6.872;2024-02-21T03:01:23;9.20;1.00
37530;DHT22;23374;52.758;6.872;2024-02-21T03:03:43;9.20;1.00
37530;DHT22;23374;52.758;6.872;2024-02-21T03:06:05;9.10;78.30
37530;DHT22;23374;52.758;6.872;2024-02-21T03:08:26;9.10;99.90
37530;DHT22;23374;52.758;6.872;2024-02-21T03:10:46;9.10;99.90
37530;DHT22;23374;52.758;6.872;2024-02-21T03:13:07;9.10;99.90
37530;DHT22;23374;52.758;6.872;2024-02-21T03:15:27;9.10;99.90
37530;DHT22;23374;52.758;6.872;2024-02-21T03:17:47;9.10;99.90
37530;DHT22;23374;52.758;6.872;2024-02-21T03:20:09;9.00;99.90
37530;DHT22;23374;52.758;6.872;2024-02-21T03:22:31;9.00;1.00
37530;DHT22;23374;52.758;6.872;2024-02-21T03:24:52;9.10;1.00
37530;DHT22;23374;52.758;6.872;2024-02-21T03:27:12;9.10;1.00
37530;DHT22;23374;52.758;6.872;2024-02-21T03:29:32;9.10;1.00
37530;DHT22;23374;52.758;6.872;2024-02-21T03:31:53;9.10;1.00
37530;DHT22;23374;52.758;6.872;2024-02-21T03:34:14;9.10;1.00
37530;DHT22;23374;52.758;6.872;2024-02-21T03:36:34;9.10;1.00
37530;DHT22;23374;52.758;6.872;2024-02-21T03:38:57;9.10;1.00
37530;DHT22;23374;52.758;6.872;2024-02-21T03:41:17;9.10;1.00
37530;DHT22;23374;52.758;6.872;2024-02-21T03:43:38;9.10;1.00
37530;DHT22;23374;52.758;6.872;2024-02-21T03:45:59;9.00;1.00
37530;DHT22;23374;52.758;6.872;2024-02-21T03:48:19;9.10;1.00
37530;DHT22;23374;52.758;6.872;2024-02-21T03:50:40;9.10;1.00
37530;DHT22;23374;52.758;6.872;2024-02-21T03:53:01;9.10;1.00
37530;DHT22;23374;52.758;6.872;2024-02-21T03:55:22;9.10;1.00
37530;DHT22;23374;52.758;6.872;2024-02-21T03:57:42;9.10;1.00
37530;DHT22;23374;52.758;6.872;2024-02-21T04:00:02;9.10;1.00
37530;DHT22;23374;52.758;6.872;2024-02-21T04:02:23;9.10;1.00
37530;DHT22;23374;52.758;6.872;2024-02-21T04:04:45;9.10;1.00
37530;DHT22;23374;52.758;6.872;2024-02-21T04:07:08;9.10;1.00
37530;DHT22;23374;52.758;6.872;2024-02-21T04:09:28;9.10;1.00
37530;DHT22;23374;52.758;6.872;2024-02-21T04:11:49;9.10;1.00
37530;DHT22;23374;52.758;6.872;2024-02-21T04:14:09;9.10;1.00
37530;DHT22;23374;52.758;6.872;2024-02-21T04:16:31;9.10;1.00
37530;DHT22;23374;52.758;6.872;2024-02-21T04:18:51;9.10;1.00
37530;DHT22;23374;52.758;6.872;2024-02-21T04:21:14;9.10;1.00
37530;DHT22;23374;52.758;6.872;2024-02-21T04:23:36;9.10;1.00
37530;DHT22;23374;52.758;6.872;2024-02-21T04:25:57;9.10;1.00
37530;DHT22;23374;52.758;6.872;2024-02-21T04:28:17;9.10;1.00
37530;DHT22;23374;52.758;6.872;2024-02-21T04:30:38;9.10;99.90
37530;DHT22;23374;52.758;6.872;2024-02-21T04:32:58;9.10;1.00
37530;DHT22;23374;52.758;6.872;2024-02-21T04:35:19;9.10;99.90
37530;DHT22;23374;52.758;6.872;2024-02-21T04:37:39;9.10;99.90
37530;DHT22;23374;52.758;6.872;2024-02-21T04:40:00;9.10;99.90
37530;DHT22;23374;52.758;6.872;2024-02-21T04:42:20;9.20;99.90
37530;DHT22;23374;52.758;6.872;2024-02-21T04:44:41;9.10;99.90
37530;DHT22;23374;52.758;6.872;2024-02-21T04:47:02;9.20;99.90
37530;DHT22;23374;52.758;6.872;2024-02-21T04:49:23;9.20;99.90
37530;DHT22;23374;52.758;6.872;2024-02-21T04:51:44;9.20;99.90
37530;DHT22;23374;52.758;6.872;2024-02-21T04:54:05;9.20;99.90
37530;DHT22;23374;52.758;6.872;2024-02-21T04:56:25;9.20;99.90
37530;DHT22;23374;52.758;6.872;2024-02-21T04:58:46;9.20;99.90
37530;DHT22;23374;52.758;6.872;2024-02-21T05:01:06;9.20;99.90
37530;DHT22;23374;52.758;6.872;2024-02-21T05:03:28;9.20;99.90
37530;DHT22;23374;52.758;6.872;2024-02-21T05:05:48;9.20;99.90
37530;DHT22;23374;52.758;6.872;2024-02-21T05:08:09;9.20;99.90
37530;DHT22;23374;52.758;6.872;2024-02-21T05:10:30;9.20;53.10
37530;DHT22;23374;52.758;6.872;2024-02-21T05:12:51;9.20;41.40
37530;DHT22;23374;52.758;6.872;2024-02-21T05:15:11;9.30;6.70
37530;DHT22;23374;52.758;6.872;2024-02-21T05:17:31;9.30;1.00
37530;DHT22;23374;52.758;6.872;2024-02-21T05:19:52;9.30;1.00
37530;DHT22;23374;52.758;6.872;2024-02-21T05:22:13;9.30;1.00
37530;DHT22;23374;52.758;6.872;2024-02-21T05:24:33;9.30;1.00
37530;DHT22;23374;52.758;6.872;2024-02-21T05:26:54;9.30;1.00
37530;DHT22;23374;52.758;6.872;2024-02-21T05:29:15;9.30;1.00
37530;DHT22;23374;52.758;6.872;2024-02-21T05:31:56;9.30;1.00
37530;DHT22;23374;52.758;6.872;2024-02-21T05:34:18;9.30;1.00
37530;DHT22;23374;52.758;6.872;2024-02-21T05:36:39;9.30;1.00
37530;DHT22;23374;52.758;6.872;2024-02-21T05:38:59;9.30;1.00
37530;DHT22;23374;52.758;6.872;2024-02-21T05:41:19;9.30;1.00
37530;DHT22;23374;52.758;6.872;2024-02-21T05:43:40;9.30;1.00
37530;DHT22;23374;52.758;6.872;2024-02-21T05:46:00;9.30;1.00
37530;DHT22;23374;52.758;6.872;2024-02-21T05:48:26;9.30;1.00
37530;DHT22;23374;52.758;6.872;2024-02-21T05:50:47;9.30;99.90
37530;DHT22;23374;52.758;6.872;2024-02-21T05:53:07;9.30;99.90
37530;DHT22;23374;52.758;6.872;2024-02-21T05:55:27;9.30;99.90
37530;DHT22;23374;52.758;6.872;2024-02-21T05:57:47;9.30;99.90
37530;DHT22;23374;52.758;6.872;2024-02-21T06:00:09;9.30;99.90
37530;DHT22;23374;52.758;6.872;2024-02-21T06:02:30;9.40;99.90
37530;DHT22;23374;52.758;6.872;2024-02-21T06:04:50;9.40;99.90
37530;DHT22;23374;52.758;6.872;2024-02-21T06:07:10;9.40;99.90
37530;DHT22;23374;52.758;6.872;2024-02-21T06:09:31;9.40;99.90
37530;DHT22;23374;52.758;6.872;2024-02-21T06:11:52;9.40;89.40
37530;DHT22;23374;52.758;6.872;2024-02-21T06:14:12;9.40;99.90
37530;DHT22;23374;52.758;6.872;2024-02-21T06:16:32;9.40;40.80
37530;DHT22;23374;52.758;6.872;2024-02-21T06:18:52;9.40;22.80
37530;DHT22;23374;52.758;6.872;2024-02-21T06:21:13;9.40;7.40
37530;DHT22;23374;52.758;6.872;2024-02-21T06:23:33;9.40;1.00
37530;DHT22;23374;52.758;6.872;2024-02-21T06:25:53;9.40;1.00
37530;DHT22;23374;52.758;6.872;2024-02-21T06:28:14;9.40;1.00
37530;DHT22;23374;52.758;6.872;2024-02-21T06:30:34;9.40;1.00
37530;DHT22;23374;52.758;6.872;2024-02-21T06:32:54;9.40;1.00
37530;DHT22;23374;52.758;6.872;2024-02-21T06:35:16;9.40;1.00
37530;DHT22;23374;52.758;6.872;2024-02-21T06:37:36;9.40;1.00
37530;DHT22;23374;52.758;6.872;2024-02-21T06:39:59;9.40;1.00
37530;DHT22;23374;52.758;6.872;2024-02-21T06:42:19;9.40;1.00
37530;DHT22;23374;52.758;6.872;2024-02-21T06:44:41;9.40;1.00
37530;DHT22;23374;52.758;6.872;2024-02-21T06:47:02;9.40;1.00
37530;DHT22;23374;52.758;6.872;2024-02-21T06:49:22;9.40;1.00
37530;DHT22;23374;52.758;6.872;2024-02-21T06:51:43;9.40;1.00
37530;DHT22;23374;52.758;6.872;2024-02-21T06:54:03;9.40;1.00
37530;DHT22;23374;52.758;6.872;2024-02-21T06:56:24;9.40;1.00
37530;DHT22;23374;52.758;6.872;2024-02-21T06:58:46;9.40;1.00
37530;DHT22;23374;52.758;6.872;2024-02-21T07:01:07;9.40;1.00
37530;DHT22;23374;52.758;6.872;2024-02-21T07:03:28;9.40;1.00
37530;DHT22;23374;52.758;6.872;2024-02-21T07:05:48;9.40;1.00
37530;DHT22;23374;52.758;6.872;2024-02-21T07:08:09;9.40;1.00
37530;DHT22;23374;52.758;6.872;2024-02-21T07:10:29;9.40;1.00
37530;DHT22;23374;52.758;6.872;2024-02-21T07:12:50;9.40;1.00
37530;DHT22;23374;52.758;6.872;2024-02-21T07:15:12;9.40;1.00
37530;DHT22;23374;52.758;6.872;2024-02-21T07:17:33;9.40;1.00
37530;DHT22;23374;52.758;6.872;2024-02-21T07:19:54;9.40;1.00
37530;DHT22;23374;52.758;6.872;2024-02-21T07:22:17;9.40;1.00
37530;DHT22;23374;52.758;6.872;2024-02-21T07:24:37;9.30;1.00
37530;DHT22;23374;52.758;6.872;2024-02-21T07:26:58;9.30;1.00
37530;DHT22;23374;52.758;6.872;2024-02-21T07:29:24;9.30;1.00
37530;DHT22;23374;52.758;6.872;2024-02-21T07:31:44;9.30;1.00
37530;DHT22;23374;52.758;6.872;2024-02-21T07:34:05;9.30;1.00
37530;DHT22;23374;52.758;6.872;2024-02-21T07:36:30;9.30;1.00
37530;DHT22;23374;52.758;6.872;2024-02-21T07:38:50;9.20;1.00
37530;DHT22;23374;52.758;6.872;2024-02-21T07:41:10;9.20;1.00
37530;DHT22;23374;52.758;6.872;2024-02-21T07:43:30;9.20;1.00
37530;DHT22;23374;52.758;6.872;2024-02-21T07:45:51;9.20;1.00
37530;DHT22;23374;52.758;6.872;2024-02-21T07:48:11;9.20;1.00
37530;DHT22;23374;52.758;6.872;2024-02-21T07:50:31;9.20;1.00
37530;DHT22;23374;52.758;6.872;2024-02-21T07:52:52;9.20;1.00
37530;DHT22;23374;52.758;6.872;2024-02-21T07:55:12;9.20;1.00
37530;DHT22;23374;52.758;6.872;2024-02-21T07:57:32;9.20;1.00
37530;DHT22;23374;52.758;6.872;2024-02-21T07:59:53;9.20;1.00
37530;DHT22;23374;52.758;6.872;2024-02-21T08:02:15;9.20;1.00
37530;DHT22;23374;52.758;6.872;2024-02-21T08:04:35;9.20;1.00
37530;DHT22;23374;52.758;6.872;2024-02-21T08:06:55;9.20;99.90
37530;DHT22;23374;52.758;6.872;2024-02-21T08:09:15;9.20;1.00
37530;DHT22;23374;52.758;6.872;2024-02-21T08:11:36;9.20;99.90
37530;DHT22;23374;52.758;6.872;2024-02-21T08:13:56;9.20;99.90
37530;DHT22;23374;52.758;6.872;2024-02-21T08:16:18;9.20;99.90
37530;DHT22;23374;52.758;6.872;2024-02-21T08:18:38;9.20;99.90
37530;DHT22;23374;52.758;6.872;2024-02-21T08:20:59;9.20;99.90
37530;DHT22;23374;52.758;6.872;2024-02-21T08:23:22;9.20;99.90
37530;DHT22;23374;52.758;6.872;2024-02-21T08:25:43;9.20;99.90
37530;DHT22;23374;52.758;6.872;2024-02-21T08:28:05;9.10;99.90
37530;DHT22;23374;52.758;6.872;2024-02-21T08:30:25;9.10;99.90
37530;DHT22;23374;52.758;6.872;2024-02-21T08:32:46;9.10;99.90
37530;DHT22;23374;52.758;6.872;2024-02-21T08:35:08;9.10;99.90
37530;DHT22;23374;52.758;6.872;2024-02-21T08:37:29;9.10;1.00
37530;DHT22;23374;52.758;6.872;2024-02-21T08:39:49;9.10;99.90
37530;DHT22;23374;52.758;6.872;2024-02-21T08:42:09;9.10;99.90
37530;DHT22;23374;52.758;6.872;2024-02-21T08:44:29;9.10;99.90
37530;DHT22;23374;52.758;6.872;2024-02-21T08:46:50;9.10;99.90
37530;DHT22;23374;52.758;6.872;2024-02-21T08:49:10;9.20;99.90
37530;DHT22;23374;52.758;6.872;2024-02-21T08:51:31;9.20;99.90
37530;DHT22;23374;52.758;6.872;2024-02-21T08:53:51;9.20;99.90
37530;DHT22;23374;52.758;6.872;2024-02-21T08:56:12;9.20;37.10
37530;DHT22;23374;52.758;6.872;2024-02-21T08:58:34;9.20;1.00
37530;DHT22;23374;52.758;6.872;2024-02-21T09:00:55;9.30;1.50
37530;DHT22;23374;52.758;6.872;2024-02-21T09:03:16;9.30;1.00
37530;DHT22;23374;52.758;6.872;2024-02-21T09:05:40;9.30;1.00
37530;DHT22;23374;52.758;6.872;2024-02-21T09:08:00;9.30;1.00
37530;DHT22;23374;52.758;6.872;2024-02-21T09:10:21;9.30;1.00
37530;DHT22;23374;52.758;6.872;2024-02-21T09:12:41;9.30;1.00
37530;DHT22;23374;52.758;6.872;2024-02-21T09:15:01;9.40;1.00
37530;DHT22;23374;52.758;6.872;2024-02-21T09:17:22;9.40;1.00
37530;DHT22;23374;52.758;6.872;2024-02-21T09:19:43;9.40;1.00
37530;DHT22;23374;52.758;6.872;2024-02-21T09:22:04;9.40;1.00
37530;DHT22;23374;52.758;6.872;2024-02-21T09:24:25;9.40;1.00
37530;DHT22;23374;52.758;6.872;2024-02-21T09:26:45;9.40;1.00
37530;DHT22;23374;52.758;6.872;2024-02-21T09:29:10;9.40;1.00
37530;DHT22;23374;52.758;6.872;2024-02-21T09:31:30;9.50;1.00
37530;DHT22;23374;52.758;6.872;2024-02-21T09:33:51;9.50;99.90
37530;DHT22;23374;52.758;6.872;2024-02-21T09:36:11;9.50;99.90
37530;DHT22;23374;52.758;6.872;2024-02-21T09:38:32;9.50;99.90
37530;DHT22;23374;52.758;6.872;2024-02-21T09:41:38;9.50;99.90
37530;DHT22;23374;52.758;6.872;2024-02-21T09:44:02;9.50;99.90
37530;DHT22;23374;52.758;6.872;2024-02-21T09:46:57;9.50;99.90
37530;DHT22;23374;52.758;6.872;2024-02-21T09:49:42;9.50;99.90
37530;DHT22;23374;52.758;6.872;2024-02-21T09:52:07;9.50;99.90
37530;DHT22;23374;52.758;6.872;2024-02-21T09:54:29;9.50;99.90
37530;DHT22;23374;52.758;6.872;2024-02-21T09:56:53;9.60;99.90
37530;DHT22;23374;52.758;6.872;2024-02-21T09:59:17;9.60;99.90
37530;DHT22;23374;52.758;6.872;2024-02-21T10:01:37;9.60;99.90
37530;DHT22;23374;52.758;6.872;2024-02-21T10:03:58;9.60;99.90
37530;DHT22;23374;52.758;6.872;2024-02-21T10:06:18;9.60;1.00
37530;DHT22;23374;52.758;6.872;2024-02-21T10:08:39;9.60;1.00
37530;DHT22;23374;52.758;6.872;2024-02-21T10:11:00;9.60;94.70
37530;DHT22;23374;52.758;6.872;2024-02-21T10:13:29;9.60;57.30
37530;DHT22;23374;52.758;6.872;2024-02-21T10:16:09;9.60;86.90
37530;DHT22;23374;52.758;6.872;2024-02-21T10:18:29;9.60;79.20
37530;DHT22;23374;52.758;6.872;2024-02-21T10:21:03;9.60;1.00
37530;DHT22;23374;52.758;6.872;2024-02-21T10:23:24;9.60;1.00
37530;DHT22;23374;52.758;6.872;2024-02-21T10:25:44;9.60;1.00
37530;DHT22;23374;52.758;6.872;2024-02-21T10:28:07;9.60;1.00
37530;DHT22;23374;52.758;6.872;2024-02-21T10:30:27;9.70;1.00
37530;DHT22;23374;52.758;6.872;2024-02-21T10:32:52;9.70;1.00
37530;DHT22;23374;52.758;6.872;2024-02-21T10:35:13;9.60;1.00
37530;DHT22;23374;52.758;6.872;2024-02-21T10:37:34;9.70;1.00
37530;DHT22;23374;52.758;6.872;2024-02-21T10:39:54;9.70;1.00
37530;DHT22;23374;52.758;6.872;2024-02-21T10:42:16;9.70;1.00
37530;DHT22;23374;52.758;6.872;2024-02-21T10:44:39;9.70;1.00
37530;DHT22;23374;52.758;6.872;2024-02-21T10:47:03;9.80;1.00
37530;DHT22;23374;52.758;6.872;2024-02-21T10:49:27;9.80;1.00
37530;DHT22;23374;52.758;6.872;2024-02-21T10:51:50;9.80;1.00
37530;DHT22;23374;52.758;6.872;2024-02-21T10:56:32;9.80;99.90
37530;DHT22;23374;52.758;6.872;2024-02-21T10:59:01;9.90;99.90
37530;DHT22;23374;52.758;6.872;2024-02-21T11:01:23;9.90;99.90
37530;DHT22;23374;52.758;6.872;2024-02-21T11:03:49;10.00;99.90
37530;DHT22;23374;52.758;6.872;2024-02-21T11:06:11;10.00;99.90
37530;DHT22;23374;52.758;6.872;2024-02-21T11:08:32;10.00;99.90
37530;DHT22;23374;52.758;6.872;2024-02-21T11:10:58;10.10;99.90
37530;DHT22;23374;52.758;6.872;2024-02-21T11:13:35;10.10;99.90
37530;DHT22;23374;52.758;6.872;2024-02-21T11:16:09;10.10;1.00
37530;DHT22;23374;52.758;6.872;2024-02-21T11:18:30;10.10;1.00
37530;DHT22;23374;52.758;6.872;2024-02-21T11:20:50;10.10;4.20
37530;DHT22;23374;52.758;6.872;2024-02-21T11:23:25;10.10;40.20
37530;DHT22;23374;52.758;6.872;2024-02-21T11:25:46;10.10;23.50
37530;DHT22;23374;52.758;6.872;2024-02-21T11:28:06;10.10;10.90
37530;DHT22;23374;52.758;6.872;2024-02-21T11:30:31;10.10;91.90
37530;DHT22;23374;52.758;6.872;2024-02-21T11:33:01;10.20;6.80
37530;DHT22;23374;52.758;6.872;2024-02-21T11:35:22;10.20;43.70
37530;DHT22;23374;52.758;6.872;2024-02-21T11:37:43;10.20;1.00
37530;DHT22;23374;52.758;6.872;2024-02-21T11:40:07;10.20;1.00
37530;DHT22;23374;52.758;6.872;2024-02-21T11:42:30;10.30;1.00
37530;DHT22;23374;52.758;6.872;2024-02-21T11:44:50;10.30;4.90
37530;DHT22;23374;52.758;6.872;2024-02-21T11:47:11;10.30;53.90
37530;DHT22;23374;52.758;6.872;2024-02-21T11:49:44;10.30;94.00
37530;DHT22;23374;52.758;6.872;2024-02-21T11:52:06;10.40;99.90
37530;DHT22;23374;52.758;6.872;2024-02-21T11:54:27;10.40;99.90
37530;DHT22;23374;52.758;6.872;2024-02-21T11:56:47;10.40;99.90
37530;DHT22;23374;52.758;6.872;2024-02-21T11:59:09;10.40;54.20
37530;DHT22;23374;52.758;6.872;2024-02-21T12:01:29;10.40;99.90
37530;DHT22;23374;52.758;6.872;2024-02-21T12:03:49;10.40;1.00
37530;DHT22;23374;52.758;6.872;2024-02-21T12:06:10;10.40;51.40
37530;DHT22;23374;52.758;6.872;2024-02-21T12:08:43;10.40;1.00
37530;DHT22;23374;52.758;6.872;2024-02-21T12:11:04;10.40;1.00
37530;DHT22;23374;52.758;6.872;2024-02-21T12:13:24;10.40;1.00
37530;DHT22;23374;52.758;6.872;2024-02-21T12:15:47;10.40;1.00
37530;DHT22;23374;52.758;6.872;2024-02-21T12:18:10;10.40;1.00
37530;DHT22;23374;52.758;6.872;2024-02-21T12:20:31;10.40;1.00
37530;DHT22;23374;52.758;6.872;2024-02-21T12:22:52;10.50;1.00
37530;DHT22;23374;52.758;6.872;2024-02-21T12:25:19;10.50;1.00
37530;DHT22;23374;52.758;6.872;2024-02-21T12:27:40;10.50;1.00
37530;DHT22;23374;52.758;6.872;2024-02-21T12:30:01;10.50;1.00
37530;DHT22;23374;52.758;6.872;2024-02-21T12:32:21;10.50;1.00
37530;DHT22;23374;52.758;6.872;2024-02-21T12:34:43;10.50;1.00
37530;DHT22;23374;52.758;6.872;2024-02-21T12:37:04;10.50;1.00
37530;DHT22;23374;52.758;6.872;2024-02-21T12:39:25;10.40;1.00
37530;DHT22;23374;52.758;6.872;2024-02-21T12:41:48;10.50;1.00
37530;DHT22;23374;52.758;6.872;2024-02-21T12:44:08;10.50;1.00
37530;DHT22;23374;52.758;6.872;2024-02-21T12:46:29;10.50;1.00
37530;DHT22;23374;52.758;6.872;2024-02-21T12:48:50;10.50;1.00
37530;DHT22;23374;52.758;6.872;2024-02-21T12:51:11;10.50;1.00
37530;DHT22;23374;52.758;6.872;2024-02-21T12:53:31;10.50;1.00
37530;DHT22;23374;52.758;6.872;2024-02-21T12:55:52;10.40;1.00
37530;DHT22;23374;52.758;6.872;2024-02-21T12:58:12;10.40;1.00
37530;DHT22;23374;52.758;6.872;2024-02-21T13:00:34;10.30;1.00
37530;DHT22;23374;52.758;6.872;2024-02-21T13:02:55;10.30;1.00
37530;DHT22;23374;52.758;6.872;2024-02-21T13:05:16;10.20;1.00
37530;DHT22;23374;52.758;6.872;2024-02-21T13:07:37;10.20;1.00
37530;DHT22;23374;52.758;6.872;2024-02-21T13:09:57;10.20;1.00
37530;DHT22;23374;52.758;6.872;2024-02-21T13:12:18;10.20;1.00
37530;DHT22;23374;52.758;6.872;2024-02-21T13:14:39;10.10;1.00
37530;DHT22;23374;52.758;6.872;2024-02-21T13:16:59;10.10;1.00
37530;DHT22;23374;52.758;6.872;2024-02-21T13:19:20;10.10;1.00
37530;DHT22;23374;52.758;6.872;2024-02-21T13:21:40;10.10;1.00
37530;DHT22;23374;52.758;6.872;2024-02-21T13:24:01;10.10;1.00
37530;DHT22;23374;52.758;6.872;2024-02-21T13:26:22;10.10;1.00
37530;DHT22;23374;52.758;6.872;2024-02-21T13:28:43;10.10;1.00
37530;DHT22;23374;52.758;6.872;2024-02-21T13:31:05;10.20;1.00
37530;DHT22;23374;52.758;6.872;2024-02-21T13:33:26;10.20;1.00
37530;DHT22;23374;52.758;6.872;2024-02-21T13:35:46;10.20;1.00
37530;DHT22;23374;52.758;6.872;2024-02-21T13:38:06;10.30;1.00
37530;DHT22;23374;52.758;6.872;2024-02-21T13:40:27;10.30;1.00
37530;DHT22;23374;52.758;6.872;2024-02-21T13:42:47;10.40;1.00
37530;DHT22;23374;52.758;6.872;2024-02-21T13:45:10;10.40;1.00
37530;DHT22;23374;52.758;6.872;2024-02-21T13:47:30;10.40;1.00
37530;DHT22;23374;52.758;6.872;2024-02-21T13:49:50;10.40;1.00
37530;DHT22;23374;52.758;6.872;2024-02-21T13:52:10;10.40;1.00
37530;DHT22;23374;52.758;6.872;2024-02-21T13:54:30;10.40;1.00
37530;DHT22;23374;52.758;6.872;2024-02-21T13:56:51;10.40;1.00
37530;DHT22;23374;52.758;6.872;2024-02-21T13:59:16;10.40;1.00
37530;DHT22;23374;52.758;6.872;2024-02-21T14:01:36;10.40;1.00
37530;DHT22;23374;52.758;6.872;2024-02-21T14:03:56;10.40;1.00
37530;DHT22;23374;52.758;6.872;2024-02-21T14:06:16;10.40;1.00
37530;DHT22;23374;52.758;6.872;2024-02-21T14:08:37;10.40;1.00
37530;DHT22;23374;52.758;6.872;2024-02-21T14:10:59;10.40;1.00
37530;DHT22;23374;52.758;6.872;2024-02-21T14:13:20;10.40;1.00
37530;DHT22;23374;52.758;6.872;2024-02-21T14:15:44;10.40;1.00
37530;DHT22;23374;52.758;6.872;2024-02-21T14:18:06;10.40;1.00
37530;DHT22;23374;52.758;6.872;2024-02-21T14:20:29;10.40;1.00
37530;DHT22;23374;52.758;6.872;2024-02-21T14:22:50;10.40;1.00
37530;DHT22;23374;52.758;6.872;2024-02-21T14:25:10;10.40;1.00
37530;DHT22;23374;52.758;6.872;2024-02-21T14:27:31;10.40;1.00
37530;DHT22;23374;52.758;6.872;2024-02-21T14:29:52;10.40;1.00
37530;DHT22;23374;52.758;6.872;2024-02-21T14:32:13;10.40;1.00
37530;DHT22;23374;52.758;6.872;2024-02-21T14:34:34;10.40;1.00
37530;DHT22;23374;52.758;6.872;2024-02-21T14:36:54;10.40;1.00
37530;DHT22;23374;52.758;6.872;2024-02-21T14:39:14;10.40;1.00
37530;DHT22;23374;52.758;6.872;2024-02-21T14:41:35;10.40;1.00
37530;DHT22;23374;52.758;6.872;2024-02-21T14:43:56;10.30;99.90
37530;DHT22;23374;52.758;6.872;2024-02-21T14:46:20;10.30;1.00
37530;DHT22;23374;52.758;6.872;2024-02-21T14:48:40;10.30;1.00
37530;DHT22;23374;52.758;6.872;2024-02-21T14:51:00;10.40;1.00
37530;DHT22;23374;52.758;6.872;2024-02-21T14:53:21;10.40;1.00
37530;DHT22;23374;52.758;6.872;2024-02-21T14:55:41;10.40;99.90
37530;DHT22;23374;52.758;6.872;2024-02-21T14:58:02;10.40;99.90
37530;DHT22;23374;52.758;6.872;2024-02-21T15:00:22;10.40;99.90
37530;DHT22;23374;52.758;6.872;2024-02-21T15:02:49;10.40;1.00
37530;DHT22;23374;52.758;6.872;2024-02-21T15:05:09;10.40;1.00
37530;DHT22;23374;52.758;6.872;2024-02-21T15:07:32;10.40;1.00
37530;DHT22;23374;52.758;6.872;2024-02-21T15:09:53;10.40;1.00
37530;DHT22;23374;52.758;6.872;2024-02-21T15:12:14;10.40;1.00
37530;DHT22;23374;52.758;6.872;2024-02-21T15:14:34;10.40;1.00
37530;DHT22;23374;52.758;6.872;2024-02-21T15:16:54;10.40;99.90